Time;durP1;ratioP1;P1;durP2;ratioP2;P2;SDS_P1;SDS_P2;PMS_P1;PMS_P2;Temp;Humidity;BMP_temperature;BMP_pressure;BME280_temperature;BME280_humidity;BME280_pressure;Samples;Min_cycle;Max_cycle;Signal;HPM_P1;HPM_P2
2022/08/07 00:00:57;;;;;;;12.00;4.40;;;30.10;78.30;;;;;;5035123;28;20036;-72
2022/08/07 00:03:24;;;;;;;11.77;4.25;;;30.10;78.50;;;;;;5034938;28;20040;-72
2022/08/07 00:05:51;;;;;;;12.48;3.65;;;30.10;78.50;;;;;;5033578;28;20049;-72
2022/08/07 00:08:18;;;;;;;10.13;3.88;;;30.10;78.50;;;;;;5034927;28;20115;-71
2022/08/07 00:10:44;;;;;;;9.30;3.40;;;30.00;78.50;;;;;;5034538;28;20029;-70
2022/08/07 00:13:10;;;;;;;9.70;3.75;;;30.00;78.40;;;;;;5034774;28;20538;-71
2022/08/07 00:15:36;;;;;;;12.70;3.72;;;30.00;78.60;;;;;;5034689;28;20029;-71
2022/08/07 00:18:03;;;;;;;11.23;3.90;;;30.00;78.40;;;;;;5034775;28;20524;-71
2022/08/07 00:20:29;;;;;;;9.40;3.50;;;30.00;78.30;;;;;;5034743;28;20026;-70
2022/08/07 00:22:54;;;;;;;11.00;3.95;;;30.00;78.30;;;;;;5034989;28;20033;-71
2022/08/07 00:25:22;;;;;;;8.55;4.05;;;30.00;78.30;;;;;;5034446;28;20025;-73
2022/08/07 00:27:47;;;;;;;8.43;3.70;;;29.90;78.10;;;;;;5034476;28;20240;-76
2022/08/07 00:30:13;;;;;;;8.73;3.35;;;29.90;78.40;;;;;;5033365;28;20538;-72
2022/08/07 00:32:39;;;;;;;13.20;4.18;;;29.90;78.30;;;;;;5033718;28;20083;-71
2022/08/07 00:35:05;;;;;;;13.50;3.38;;;29.90;78.50;;;;;;5032717;28;20057;-75
2022/08/07 00:37:31;;;;;;;8.30;3.42;;;29.90;78.20;;;;;;5033081;28;20112;-76
2022/08/07 00:39:57;;;;;;;9.98;4.18;;;29.80;78.50;;;;;;5033010;28;20108;-72
2022/08/07 00:42:23;;;;;;;10.75;3.53;;;29.80;78.60;;;;;;5034187;28;20017;-74
2022/08/07 00:44:49;;;;;;;10.10;3.78;;;29.80;78.40;;;;;;5034118;28;20025;-72
2022/08/07 00:47:15;;;;;;;10.77;3.40;;;29.80;78.50;;;;;;5034067;28;20065;-74
2022/08/07 00:49:40;;;;;;;12.82;3.63;;;29.80;77.80;;;;;;5034266;28;20091;-75
2022/08/07 00:52:07;;;;;;;10.25;3.30;;;29.80;77.80;;;;;;5034083;28;20036;-76
2022/08/07 00:54:33;;;;;;;9.60;3.55;;;29.80;78.00;;;;;;5032603;28;20025;-75
2022/08/07 00:56:59;;;;;;;8.18;3.45;;;29.80;77.80;;;;;;5033556;28;20402;-74
2022/08/07 00:59:25;;;;;;;7.80;3.45;;;29.80;77.90;;;;;;5033915;28;20049;-74
2022/08/07 01:01:51;;;;;;;11.90;3.85;;;29.70;77.80;;;;;;5034070;28;20018;-73
2022/08/07 01:04:17;;;;;;;9.45;3.42;;;29.70;78.10;;;;;;5033884;28;20034;-72
2022/08/07 01:06:46;;;;;;;8.07;3.08;;;29.70;77.90;;;;;;5033784;28;20475;-75
2022/08/07 01:09:12;;;;;;;7.97;3.22;;;29.70;77.70;;;;;;5032379;28;20121;-75
2022/08/07 01:11:39;;;;;;;9.45;3.78;;;29.70;77.70;;;;;;5033797;28;20100;-73
2022/08/07 01:14:06;;;;;;;10.73;3.55;;;29.70;77.70;;;;;;5032632;28;20028;-73
2022/08/07 01:16:32;;;;;;;10.43;3.45;;;29.60;77.90;;;;;;5033546;28;20017;-74
2022/08/07 01:18:58;;;;;;;11.32;3.45;;;29.60;77.80;;;;;;5033666;28;20064;-73
2022/08/07 01:21:25;;;;;;;7.18;3.40;;;29.60;77.80;;;;;;5032388;28;20356;-74
2022/08/07 01:23:52;;;;;;;8.43;2.80;;;29.60;77.80;;;;;;5033811;28;20037;-73
2022/08/07 01:26:21;;;;;;;9.05;3.10;;;29.60;77.60;;;;;;5033554;28;20067;-74
2022/08/07 01:28:49;;;;;;;10.75;3.67;;;29.60;78.10;;;;;;5034150;28;20348;-73
2022/08/07 01:31:16;;;;;;;9.20;3.70;;;29.50;78.10;;;;;;5033396;28;20017;-73
2022/08/07 01:33:42;;;;;;;11.50;3.28;;;29.50;78.10;;;;;;5033431;28;20108;-76
2022/08/07 01:36:11;;;;;;;10.32;3.38;;;29.50;78.00;;;;;;5031789;28;20379;-75
2022/08/07 01:38:38;;;;;;;9.40;3.67;;;29.50;77.80;;;;;;5033277;28;20014;-75
2022/08/07 01:41:08;;;;;;;9.65;3.60;;;29.50;78.10;;;;;;5033405;28;20047;-76
2022/08/07 01:43:35;;;;;;;8.55;3.22;;;29.40;77.90;;;;;;5033474;28;20021;-75
2022/08/07 01:46:02;;;;;;;11.98;3.72;;;29.50;78.00;;;;;;5032844;28;20049;-75
2022/08/07 01:48:28;;;;;;;9.68;3.33;;;29.50;78.10;;;;;;5033339;28;20549;-74
2022/08/07 01:51:02;;;;;;;7.30;3.30;;;29.40;77.80;;;;;;5033173;28;20033;-76
2022/08/07 01:53:31;;;;;;;9.75;3.50;;;29.40;78.20;;;;;;5033399;28;20045;-76
2022/08/07 01:56:02;;;;;;;8.20;3.55;;;29.40;78.20;;;;;;5032398;28;20048;-74
2022/08/07 01:58:32;;;;;;;9.05;3.65;;;29.40;78.30;;;;;;5032387;28;20029;-75
2022/08/07 02:01:07;;;;;;;7.60;3.20;;;29.40;78.50;;;;;;5031711;28;20528;-74
2022/08/07 02:03:34;;;;;;;6.13;2.90;;;29.40;78.30;;;;;;5033064;28;20517;-70
2022/08/07 02:06:05;;;;;;;9.73;3.85;;;29.40;78.50;;;;;;5032863;28;20032;-70
2022/08/07 02:08:40;;;;;;;9.75;3.70;;;29.40;78.30;;;;;;5033007;28;20052;-72
2022/08/07 02:11:08;;;;;;;7.97;3.60;;;29.30;78.40;;;;;;5033080;28;20018;-71
2022/08/07 02:13:35;;;;;;;9.07;3.30;;;29.30;78.60;;;;;;5033060;28;20034;-70
2022/08/07 02:16:03;;;;;;;9.68;3.25;;;29.30;78.60;;;;;;5032900;28;20025;-70
2022/08/07 02:18:32;;;;;;;8.10;3.53;;;29.30;78.70;;;;;;5033062;28;20471;-71
2022/08/07 02:21:00;;;;;;;7.68;3.33;;;29.30;78.80;;;;;;5032947;28;20022;-70
2022/08/07 02:23:28;;;;;;;10.48;3.25;;;29.20;78.80;;;;;;5033081;28;20048;-71
2022/08/07 02:25:56;;;;;;;6.15;3.05;;;29.20;78.70;;;;;;5033061;28;20021;-72
2022/08/07 02:28:24;;;;;;;8.52;3.45;;;29.20;78.70;;;;;;5032793;28;20127;-71
2022/08/07 02:30:51;;;;;;;9.98;3.20;;;29.20;78.70;;;;;;5033005;28;20037;-70
2022/08/07 02:33:19;;;;;;;8.55;3.40;;;29.20;78.70;;;;;;5032821;28;20029;-71
2022/08/07 02:35:46;;;;;;;9.07;3.42;;;29.30;78.90;;;;;;5032644;28;20029;-71
2022/08/07 02:38:14;;;;;;;7.93;3.28;;;29.30;78.70;;;;;;5032678;28;20029;-70
2022/08/07 02:40:42;;;;;;;8.82;3.30;;;29.20;78.70;;;;;;5032787;28;20034;-71
2022/08/07 02:43:09;;;;;;;11.02;3.53;;;29.20;78.60;;;;;;5031344;28;20022;-71
2022/08/07 02:45:39;;;;;;;9.02;3.47;;;29.20;78.90;;;;;;5032393;28;20069;-70
2022/08/07 02:48:05;;;;;;;8.15;3.40;;;29.20;78.80;;;;;;5032643;28;20049;-72
2022/08/07 02:50:38;;;;;;;10.63;3.55;;;29.10;78.70;;;;;;5032632;28;20067;-72
2022/08/07 02:53:13;;;;;;;9.38;3.15;;;29.10;78.70;;;;;;5032765;28;20064;-71
2022/08/07 02:55:45;;;;;;;9.90;3.33;;;29.10;78.90;;;;;;5032523;28;20490;-70
2022/08/07 02:58:14;;;;;;;9.82;3.47;;;29.10;78.90;;;;;;5035982;28;20120;-71
2022/08/07 03:00:42;;;;;;;8.52;3.30;;;29.10;79.00;;;;;;5036173;28;20024;-71
2022/08/07 03:03:09;;;;;;;11.45;3.33;;;29.10;79.10;;;;;;5036089;28;20033;-70
2022/08/07 03:05:36;;;;;;;10.85;3.72;;;29.10;79.20;;;;;;5034913;28;20382;-74
2022/08/07 03:08:06;;;;;;;8.10;3.50;;;29.10;79.10;;;;;;5041240;28;20030;-73
2022/08/07 03:10:33;;;;;;;9.63;3.75;;;29.10;78.30;;;;;;5041278;28;20018;-73
2022/08/07 03:13:00;;;;;;;6.43;3.20;;;29.10;79.10;;;;;;5036070;28;20055;-73
2022/08/07 03:15:27;;;;;;;10.73;3.63;;;29.10;78.80;;;;;;5035946;28;20064;-75
2022/08/07 03:17:53;;;;;;;9.65;3.42;;;29.10;79.20;;;;;;5035958;28;20040;-74
2022/08/07 03:20:19;;;;;;;12.82;3.50;;;29.10;79.10;;;;;;5035879;28;20021;-73
2022/08/07 03:22:46;;;;;;;7.35;3.47;;;29.10;79.20;;;;;;5035694;28;20479;-72
2022/08/07 03:25:12;;;;;;;8.63;3.55;;;29.10;79.50;;;;;;5035548;28;20486;-73
2022/08/07 03:27:41;;;;;;;9.60;3.55;;;29.10;79.40;;;;;;5035383;28;20057;-73
2022/08/07 03:30:08;;;;;;;7.85;3.40;;;29.10;79.50;;;;;;5035466;28;20029;-73
2022/08/07 03:32:37;;;;;;;10.38;3.40;;;29.10;79.10;;;;;;5035534;28;20040;-74
2022/08/07 03:35:07;;;;;;;10.60;4.00;;;29.10;79.70;;;;;;5035489;28;20033;-74
2022/08/07 03:37:35;;;;;;;11.30;3.65;;;29.00;79.50;;;;;;5033815;28;20026;-73
2022/08/07 03:40:02;;;;;;;8.27;3.30;;;29.00;79.80;;;;;;5035511;28;20033;-73
2022/08/07 03:42:28;;;;;;;12.10;3.55;;;29.10;79.80;;;;;;5033804;28;20461;-73
2022/08/07 03:44:55;;;;;;;9.52;3.63;;;29.10;79.80;;;;;;5033740;28;20057;-74
2022/08/07 03:47:21;;;;;;;9.93;3.70;;;29.00;79.90;;;;;;5035109;28;20564;-72
2022/08/07 03:49:47;;;;;;;10.93;4.22;;;29.00;79.80;;;;;;5035084;28;20025;-74
2022/08/07 03:52:16;;;;;;;8.35;3.60;;;29.00;80.10;;;;;;5033786;28;20025;-72
2022/08/07 03:54:41;;;;;;;12.73;3.50;;;29.00;80.10;;;;;;5034998;28;20033;-72
2022/08/07 03:57:08;;;;;;;9.65;3.80;;;29.00;80.30;;;;;;5064364;22;20398;-74
2022/08/07 03:59:33;;;;;;;11.52;3.80;;;29.00;80.30;;;;;;5054595;28;20466;-74
2022/08/07 04:02:00;;;;;;;10.73;3.90;;;29.00;80.10;;;;;;5054401;28;20035;-74
2022/08/07 04:04:26;;;;;;;11.60;3.90;;;28.90;80.00;;;;;;5054596;28;20151;-74
2022/08/07 04:06:51;;;;;;;10.60;3.53;;;28.90;79.40;;;;;;5054256;28;20112;-74
2022/08/07 04:09:19;;;;;;;10.07;3.30;;;28.90;78.80;;;;;;5054225;28;20025;-74
2022/08/07 04:11:45;;;;;;;8.07;3.38;;;28.90;78.30;;;;;;5054303;28;20025;-74
2022/08/07 04:14:11;;;;;;;8.05;3.45;;;29.00;77.70;;;;;;5054284;28;20108;-73
2022/08/07 04:16:37;;;;;;;12.43;3.53;;;29.00;77.50;;;;;;5054541;28;20354;-73
2022/08/07 04:19:04;;;;;;;10.27;3.53;;;29.00;77.10;;;;;;5054341;28;20028;-74
2022/08/07 04:21:31;;;;;;;10.10;3.58;;;28.90;76.20;;;;;;5052929;28;20060;-74
2022/08/07 04:23:57;;;;;;;6.95;3.33;;;28.90;75.60;;;;;;5053020;28;20083;-74
2022/08/07 04:26:23;;;;;;;8.77;3.33;;;28.90;74.40;;;;;;5052218;28;20086;-73
2022/08/07 04:28:49;;;;;;;7.32;3.30;;;28.90;73.70;;;;;;5052385;28;20028;-73
2022/08/07 04:31:15;;;;;;;11.23;3.67;;;28.90;73.10;;;;;;5052428;28;20076;-73
2022/08/07 04:33:41;;;;;;;5.80;2.80;;;28.90;72.20;;;;;;5054025;28;20032;-74
2022/08/07 04:36:08;;;;;;;8.75;3.70;;;28.90;71.90;;;;;;5053740;28;20056;-73
2022/08/07 04:38:35;;;;;;;6.55;3.60;;;28.90;71.60;;;;;;5053639;28;20017;-73
2022/08/07 04:41:01;;;;;;;6.93;3.30;;;28.90;70.90;;;;;;5054126;28;20040;-74
2022/08/07 04:43:35;;;;;;;6.90;3.58;;;28.80;70.40;;;;;;5054155;28;20454;-74
2022/08/07 04:46:19;;;;;;;8.85;3.97;;;28.80;70.20;;;;;;5052297;28;20035;-74
2022/08/07 04:48:50;;;;;;;10.43;3.65;;;28.80;70.60;;;;;;5053828;28;20040;-74
2022/08/07 04:51:43;;;;;;;6.10;3.60;;;28.80;70.20;;;;;;5053392;28;20035;-75
2022/08/07 04:54:34;;;;;;;9.32;3.40;;;28.80;70.20;;;;;;5053499;28;20389;-75
2022/08/07 04:57:11;;;;;;;7.68;3.53;;;28.80;69.90;;;;;;5053305;28;20489;-74
2022/08/07 04:59:55;;;;;;;9.40;3.97;;;28.80;69.90;;;;;;5053459;28;20108;-75
2022/08/07 05:02:32;;;;;;;7.97;3.88;;;28.80;69.70;;;;;;5053403;28;20091;-74
2022/08/07 05:04:58;;;;;;;10.05;4.00;;;28.90;69.30;;;;;;5053520;28;20029;-73
2022/08/07 05:07:42;;;;;;;12.77;4.38;;;28.90;69.40;;;;;;5053392;28;20021;-74
2022/08/07 05:10:27;;;;;;;9.43;4.32;;;29.00;69.10;;;;;;5052951;28;20021;-73
2022/08/07 05:13:02;;;;;;;8.32;4.28;;;29.00;68.50;;;;;;5052995;28;20366;-74
2022/08/07 05:15:34;;;;;;;8.73;4.22;;;29.10;68.10;;;;;;5052851;28;20028;-73
2022/08/07 05:18:11;;;;;;;11.10;4.18;;;29.10;67.80;;;;;;5052998;28;20056;-74
2022/08/07 05:20:42;;;;;;;7.47;3.70;;;29.00;67.90;;;;;;5052895;28;20028;-75
2022/08/07 05:23:16;;;;;;;9.15;4.32;;;29.10;67.40;;;;;;5053217;28;20021;-74
2022/08/07 05:25:43;;;;;;;7.65;4.20;;;29.20;67.30;;;;;;5052915;28;20021;-74
2022/08/07 05:28:11;;;;;;;7.13;4.05;;;29.30;66.80;;;;;;5053129;28;20043;-73
2022/08/07 05:30:39;;;;;;;7.68;4.18;;;29.40;66.10;;;;;;5053026;28;20168;-75
2022/08/07 05:33:06;;;;;;;12.73;4.53;;;29.70;65.50;;;;;;5052939;28;20052;-74
2022/08/07 05:35:34;;;;;;;9.35;4.22;;;29.90;64.30;;;;;;5052567;28;20017;-75
2022/08/07 05:38:01;;;;;;;9.77;3.95;;;30.20;63.30;;;;;;5052506;28;20021;-74
2022/08/07 05:40:27;;;;;;;14.68;4.25;;;30.50;62.70;;;;;;5052698;28;20082;-74
2022/08/07 05:42:53;;;;;;;7.28;4.15;;;30.70;61.60;;;;;;5052537;28;20429;-75
2022/08/07 05:45:20;;;;;;;6.93;3.60;;;31.00;61.00;;;;;;5052205;28;20032;-73
2022/08/07 05:47:46;;;;;;;10.93;4.15;;;31.30;60.20;;;;;;5052489;28;20040;-72
2022/08/07 05:50:12;;;;;;;9.63;3.80;;;31.50;59.60;;;;;;5052570;28;20025;-74
2022/08/07 05:52:38;;;;;;;11.85;4.18;;;31.60;59.20;;;;;;5052295;28;20109;-74
2022/08/07 05:55:04;;;;;;;8.35;3.95;;;31.80;58.70;;;;;;5052331;28;20048;-73
2022/08/07 05:57:30;;;;;;;12.82;4.07;;;32.00;58.30;;;;;;5052227;28;20049;-73
2022/08/07 05:59:58;;;;;;;10.82;4.60;;;32.10;58.00;;;;;;5052154;28;20464;-75
2022/08/07 06:02:26;;;;;;;10.45;4.00;;;32.30;58.10;;;;;;5052541;28;20104;-74
2022/08/07 06:04:55;;;;;;;9.57;4.32;;;32.50;57.30;;;;;;5052619;28;20100;-74
2022/08/07 06:07:22;;;;;;;12.27;4.47;;;32.80;56.80;;;;;;5052467;28;20033;-73
2022/08/07 06:09:48;;;;;;;7.43;4.07;;;33.00;56.20;;;;;;5052381;28;20029;-73
2022/08/07 06:12:14;;;;;;;7.57;4.13;;;33.20;55.50;;;;;;5052526;28;20063;-72
2022/08/07 06:14:41;;;;;;;8.38;4.55;;;33.40;55.40;;;;;;5052111;28;20105;-74
2022/08/07 06:17:08;;;;;;;7.60;4.63;;;33.50;55.00;;;;;;5052238;28;20025;-74
2022/08/07 06:19:37;;;;;;;11.25;5.60;;;33.60;54.40;;;;;;5052224;28;20090;-74
2022/08/07 06:22:03;;;;;;;8.73;6.65;;;33.80;54.30;;;;;;5052438;28;20082;-74
2022/08/07 06:24:29;;;;;;;12.63;7.03;;;33.80;53.40;;;;;;5052424;28;20028;-75
2022/08/07 06:26:54;;;;;;;8.85;4.72;;;33.90;53.30;;;;;;5051957;28;20026;-77
2022/08/07 06:29:26;;;;;;;10.13;4.97;;;33.90;53.10;;;;;;5051177;28;20115;-75
2022/08/07 06:31:51;;;;;;;11.18;6.38;;;33.90;53.50;;;;;;5053592;28;20100;-74
2022/08/07 06:34:17;;;;;;;11.70;5.80;;;33.90;53.30;;;;;;5056202;28;20112;-75
2022/08/07 06:36:43;;;;;;;8.80;4.50;;;34.20;53.00;;;;;;5055912;28;20029;-73
2022/08/07 06:39:08;;;;;;;9.48;5.45;;;34.20;52.90;;;;;;5055843;28;20116;-74
2022/08/07 06:42:07;;;;;;;10.65;5.28;;;34.30;52.90;;;;;;5056009;28;20039;-74
2022/08/07 06:44:34;;;;;;;8.95;4.45;;;34.20;51.80;;;;;;5055983;28;20029;-74
2022/08/07 06:47:01;;;;;;;5.68;3.50;;;34.10;52.80;;;;;;5055734;28;20025;-74
2022/08/07 06:49:27;;;;;;;8.02;3.80;;;34.10;52.80;;;;;;5055989;28;20417;-74
2022/08/07 06:51:54;;;;;;;7.43;3.55;;;33.70;52.70;;;;;;5055473;28;20039;-74
2022/08/07 06:54:23;;;;;;;7.40;3.67;;;33.60;52.60;;;;;;5055360;28;20028;-75
2022/08/07 06:56:50;;;;;;;16.08;5.53;;;33.80;52.30;;;;;;5055328;28;20051;-74
2022/08/07 06:59:28;;;;;;;7.53;4.15;;;33.90;51.90;;;;;;5056065;28;20514;-74
2022/08/07 07:01:56;;;;;;;8.43;4.30;;;34.00;51.20;;;;;;5055744;28;20017;-73
2022/08/07 07:04:23;;;;;;;9.73;4.55;;;33.70;51.20;;;;;;5055521;28;20087;-74
2022/08/07 07:06:49;;;;;;;10.85;4.10;;;33.70;51.50;;;;;;5055390;28;20094;-76
2022/08/07 07:09:36;;;;;;;7.90;4.30;;;33.70;51.30;;;;;;5055432;28;20029;-76
2022/08/07 07:12:05;;;;;;;7.93;3.70;;;33.90;50.40;;;;;;5055430;28;20077;-76
2022/08/07 07:14:37;;;;;;;10.25;4.25;;;33.90;50.40;;;;;;5055408;28;20028;-75
2022/08/07 07:17:09;;;;;;;7.72;3.65;;;34.10;50.10;;;;;;5055595;28;20131;-75
2022/08/07 07:19:46;;;;;;;7.82;4.10;;;34.20;50.00;;;;;;5055192;28;20039;-72
2022/08/07 07:22:13;;;;;;;12.13;4.10;;;34.20;49.70;;;;;;5054063;28;20394;-78
2022/08/07 07:24:40;;;;;;;9.70;4.50;;;34.20;49.70;;;;;;5055282;28;20021;-74
2022/08/07 07:27:08;;;;;;;11.82;4.60;;;34.40;49.10;;;;;;5055322;28;20037;-77
2022/08/07 07:29:38;;;;;;;10.05;5.03;;;34.40;48.90;;;;;;5049609;28;20052;-72
2022/08/07 07:32:08;;;;;;;8.80;4.05;;;34.60;48.70;;;;;;5037397;28;20033;-73
2022/08/07 07:34:37;;;;;;;7.43;3.65;;;34.70;48.70;;;;;;5037415;28;20021;-71
2022/08/07 07:37:05;;;;;;;11.50;4.28;;;34.70;48.40;;;;;;5045660;28;20474;-72
2022/08/07 07:39:32;;;;;;;8.75;4.00;;;34.70;48.50;;;;;;5034935;28;20398;-74
2022/08/07 07:42:00;;;;;;;9.77;4.25;;;34.70;48.60;;;;;;5034516;28;20475;-73
2022/08/07 07:44:27;;;;;;;10.13;4.30;;;34.80;48.70;;;;;;5040015;28;20088;-74
2022/08/07 07:46:56;;;;;;;11.30;4.20;;;34.90;48.70;;;;;;5048862;28;20040;-74
2022/08/07 07:49:23;;;;;;;8.60;4.28;;;35.00;48.50;;;;;;5053367;28;20059;-74
2022/08/07 07:51:51;;;;;;;11.30;4.47;;;34.90;48.30;;;;;;5054353;28;20029;-72
2022/08/07 07:54:18;;;;;;;6.70;3.55;;;34.90;48.20;;;;;;5054619;28;20466;-74
2022/08/07 07:56:45;;;;;;;9.07;4.15;;;34.80;48.10;;;;;;5053781;28;20049;-71
2022/08/07 07:59:12;;;;;;;23.77;7.00;;;34.80;48.10;;;;;;5054665;28;20103;-74
2022/08/07 08:01:43;;;;;;;11.07;4.85;;;34.80;48.10;;;;;;5053908;28;20063;-76
2022/08/07 08:04:11;;;;;;;16.73;5.60;;;34.80;47.90;;;;;;5053563;28;20021;-69
2022/08/07 08:06:42;;;;;;;14.65;4.88;;;34.90;48.90;;;;;;5044894;28;20061;-71
2022/08/07 08:09:09;;;;;;;16.40;6.20;;;34.80;47.50;;;;;;5051285;28;20037;-72
2022/08/07 08:11:35;;;;;;;12.45;5.03;;;34.70;47.70;;;;;;5054535;28;20100;-71
2022/08/07 08:14:01;;;;;;;12.45;4.55;;;34.70;47.60;;;;;;5035500;28;20037;-71
2022/08/07 08:16:35;;;;;;;9.02;3.80;;;34.70;48.00;;;;;;5040717;28;20136;-70
2022/08/07 08:19:04;;;;;;;10.65;4.63;;;34.70;49.00;;;;;;5054403;28;20377;-69
2022/08/07 08:29:39;;;;;;;10.48;4.25;;;34.50;47.40;;;;;;5053922;28;20029;-77
2022/08/07 08:32:07;;;;;;;7.90;3.92;;;34.50;47.70;;;;;;5044143;28;20141;-74
2022/08/07 08:34:37;;;;;;;9.15;4.03;;;34.40;47.30;;;;;;5041912;28;20336;-76
2022/08/07 08:37:05;;;;;;;7.88;4.32;;;34.30;47.20;;;;;;5050976;28;20100;-75
2022/08/07 08:39:31;;;;;;;12.15;4.10;;;34.30;47.30;;;;;;5052458;28;20037;-73
2022/08/07 08:42:09;;;;;;;10.35;4.00;;;34.30;47.20;;;;;;5051891;28;20100;-76
2022/08/07 08:44:59;;;;;;;6.65;4.20;;;34.20;46.90;;;;;;5053493;28;20159;-73
2022/08/07 08:47:29;;;;;;;6.78;3.70;;;34.20;46.80;;;;;;5045827;28;20038;-72
2022/08/07 08:50:08;;;;;;;9.50;4.47;;;34.00;47.10;;;;;;5033379;28;20052;-69
2022/08/07 08:52:46;;;;;;;7.25;4.40;;;34.00;46.90;;;;;;5033140;28;20045;-76
2022/08/07 08:55:21;;;;;;;9.13;3.88;;;34.00;46.60;;;;;;5032657;28;20017;-68
2022/08/07 08:58:13;;;;;;;6.30;3.58;;;34.00;46.90;;;;;;5035588;28;20398;-68
2022/08/07 09:00:50;;;;;;;9.10;3.53;;;34.00;47.50;;;;;;5033633;28;20029;-69
2022/08/07 09:03:33;;;;;;;10.88;3.92;;;34.00;47.30;;;;;;5052931;28;20028;-71
2022/08/07 09:06:04;;;;;;;6.82;3.47;;;34.00;47.20;;;;;;5053141;28;20067;-68
2022/08/07 09:08:33;;;;;;;7.68;3.90;;;34.10;47.60;;;;;;5052956;28;20106;-70
2022/08/07 09:11:04;;;;;;;7.32;4.22;;;34.10;47.60;;;;;;5052944;28;20103;-72
2022/08/07 09:13:57;;;;;;;7.60;3.78;;;34.10;47.70;;;;;;5053033;28;20029;-71
2022/08/07 09:16:38;;;;;;;5.22;3.60;;;34.10;47.60;;;;;;5052979;28;20028;-69
2022/08/07 09:19:23;;;;;;;5.78;3.13;;;34.10;47.70;;;;;;5052860;28;20052;-69
2022/08/07 09:22:26;;;;;;;6.55;3.67;;;34.10;47.70;;;;;;5051455;28;20029;-70
2022/08/07 09:25:15;;;;;;;7.07;4.00;;;34.10;47.50;;;;;;5032337;28;20049;-69
2022/08/07 09:27:54;;;;;;;10.90;4.03;;;34.10;48.00;;;;;;5032246;28;20066;-71
2022/08/07 09:30:23;;;;;;;10.13;4.18;;;34.10;48.20;;;;;;5035465;28;20541;-73
2022/08/07 09:33:07;;;;;;;5.85;3.70;;;34.10;48.60;;;;;;5043497;28;20049;-71
2022/08/07 09:35:54;;;;;;;7.63;3.78;;;34.20;48.30;;;;;;5053176;28;20079;-83
2022/08/07 09:38:45;;;;;;;6.75;3.70;;;34.30;48.60;;;;;;5054805;28;20099;-84
2022/08/07 09:41:36;;;;;;;10.55;3.90;;;34.30;48.30;;;;;;5052999;28;20025;-74
2022/08/07 09:44:52;;;;;;;6.63;4.10;;;34.30;48.40;;;;;;5052939;28;20033;-70
2022/08/07 09:47:36;;;;;;;8.45;3.63;;;34.30;48.10;;;;;;5049899;28;20528;-69
2022/08/07 09:50:24;;;;;;;10.98;4.20;;;34.40;48.60;;;;;;5052576;28;20032;-72
2022/08/07 09:53:00;;;;;;;8.18;3.90;;;34.50;48.60;;;;;;5052860;28;20411;-72
2022/08/07 09:55:32;;;;;;;7.63;3.90;;;34.50;48.70;;;;;;5052403;28;20036;-72
2022/08/07 09:58:16;;;;;;;11.93;3.53;;;34.40;48.40;;;;;;5052541;28;20091;-73
2022/08/07 10:00:53;;;;;;;11.60;4.18;;;34.40;48.70;;;;;;5052516;28;20421;-76
2022/08/07 10:03:51;;;;;;;11.10;3.75;;;34.50;48.90;;;;;;5052914;28;20025;-79
2022/08/07 10:06:54;;;;;;;6.63;3.50;;;34.50;49.00;;;;;;5054943;28;20090;-80
2022/08/07 10:09:45;;;;;;;11.13;3.85;;;34.60;49.00;;;;;;5056920;28;20091;-70
2022/08/07 10:12:28;;;;;;;10.68;3.78;;;34.60;49.00;;;;;;5056918;28;20025;-73
2022/08/07 10:15:12;;;;;;;;;;;34.80;48.90;;;;;;5057362;28;20032;-77
2022/08/07 10:17:56;;;;;;;6.80;3.75;;;34.80;48.50;;;;;;5056312;28;20409;-79
2022/08/07 10:20:59;;;;;;;7.93;3.70;;;34.80;49.00;;;;;;5057613;28;20125;-75
2022/08/07 10:23:54;;;;;;;8.95;3.65;;;34.90;48.70;;;;;;5056656;28;20029;-71
2022/08/07 10:26:26;;;;;;;7.78;4.03;;;34.90;48.70;;;;;;5056143;28;20175;-71
2022/08/07 10:29:10;;;;;;;8.13;3.53;;;34.90;48.90;;;;;;5056181;28;20033;-76
2022/08/07 10:31:57;;;;;;;7.38;3.35;;;34.90;48.80;;;;;;5054827;28;20378;-71
2022/08/07 10:34:39;;;;;;;6.40;3.63;;;35.00;48.50;;;;;;5050018;28;20029;-70
2022/08/07 10:37:24;;;;;;;9.13;3.28;;;35.00;47.50;;;;;;5038454;28;20075;-70
2022/08/07 10:40:08;;;;;;;6.38;3.53;;;35.10;47.50;;;;;;5049169;28;20025;-70
2022/08/07 10:43:06;;;;;;;7.47;3.10;;;35.20;47.40;;;;;;5055422;28;20122;-73
2022/08/07 10:45:39;;;;;;;7.30;3.30;;;35.30;47.60;;;;;;5055776;28;20029;-73
2022/08/07 10:48:26;;;;;;;11.90;3.30;;;35.40;47.40;;;;;;5055789;28;20119;-74
2022/08/07 10:51:40;;;;;;;6.93;3.30;;;35.50;47.90;;;;;;5046448;28;20025;-71
2022/08/07 10:54:36;;;;;;;8.98;3.42;;;35.60;49.00;;;;;;5030526;28;20079;-74
2022/08/07 10:57:14;;;;;;;9.30;3.92;;;35.70;50.50;;;;;;5053369;28;20069;-71
2022/08/07 10:59:52;;;;;;;20.63;6.25;;;35.80;51.90;;;;;;5055645;28;20484;-71
2022/08/07 11:02:36;;;;;;;8.68;4.00;;;35.90;51.70;;;;;;5055990;28;20378;-70
2022/08/07 11:05:30;;;;;;;7.72;3.67;;;35.90;51.60;;;;;;5055843;28;20033;-68
2022/08/07 11:08:17;;;;;;;8.23;3.60;;;36.00;50.90;;;;;;5037453;28;20045;-69
2022/08/07 11:10:50;;;;;;;12.85;3.90;;;36.00;50.90;;;;;;5055966;28;20029;-69
2022/08/07 11:13:23;;;;;;;9.50;3.85;;;36.00;52.30;;;;;;5056012;28;20025;-72
2022/08/07 11:15:54;;;;;;;6.57;3.53;;;36.00;51.40;;;;;;5055323;28;20424;-70
2022/08/07 11:18:48;;;;;;;6.82;3.58;;;35.90;51.40;;;;;;5054485;28;20025;-71
2022/08/07 11:21:17;;;;;;;11.48;4.40;;;36.00;51.30;;;;;;5055378;28;20033;-70
2022/08/07 11:23:51;;;;;;;9.50;4.20;;;35.90;51.10;;;;;;5055307;28;20030;-71
2022/08/07 11:26:25;;;;;;;8.63;3.95;;;36.00;51.30;;;;;;5055278;28;20025;-72
2022/08/07 11:29:05;;;;;;;6.93;3.38;;;36.00;51.60;;;;;;5054993;28;20033;-70
2022/08/07 11:31:45;;;;;;;9.68;3.97;;;36.00;50.80;;;;;;5055232;28;20416;-67
2022/08/07 11:34:11;;;;;;;7.38;4.05;;;36.10;50.80;;;;;;5055067;28;20021;-67
2022/08/07 11:36:46;;;;;;;9.40;3.60;;;36.10;51.00;;;;;;5054962;28;20017;-70
2022/08/07 11:39:57;;;;;;;7.47;3.38;;;36.10;50.20;;;;;;5054909;28;20025;-68
2022/08/07 11:42:26;;;;;;;6.82;3.28;;;36.10;49.70;;;;;;5023221;28;20040;-66
2022/08/07 11:45:18;;;;;;;8.02;3.60;;;36.10;49.80;;;;;;5055121;28;20044;-70
2022/08/07 11:48:19;;;;;;;10.97;3.83;;;36.20;50.10;;;;;;5033578;28;20045;-74
2022/08/07 11:51:13;;;;;;;6.18;3.50;;;36.30;49.90;;;;;;5045873;28;20032;-70
2022/08/07 11:53:45;;;;;;;;;;;36.30;49.80;;;;;;5055738;28;20025;-68
2022/08/07 11:56:32;;;;;;;6.43;3.28;;;36.30;49.40;;;;;;5054637;28;19912;-69
2022/08/07 11:59:36;;;;;;;7.57;3.30;;;36.30;49.50;;;;;;5054780;28;20029;-72
2022/08/07 12:02:34;;;;;;;6.00;3.17;;;36.40;49.20;;;;;;5052628;28;20035;-69
2022/08/07 12:05:47;;;;;;;8.77;3.47;;;36.40;48.50;;;;;;5053991;28;20100;-74
2022/08/07 12:08:15;;;;;;;7.57;3.17;;;36.40;49.10;;;;;;5012357;28;20037;-74
2022/08/07 12:11:01;;;;;;;7.95;3.10;;;36.50;48.40;;;;;;5049255;28;20599;-72
2022/08/07 12:13:41;;;;;;;7.10;2.85;;;36.50;46.80;;;;;;5047057;28;20053;-73
2022/08/07 12:16:35;;;;;;;7.97;2.85;;;36.50;46.60;;;;;;5053808;28;20021;-68
2022/08/07 12:19:39;;;;;;;11.35;3.17;;;36.60;45.20;;;;;;5052398;28;20047;-70
2022/08/07 12:22:13;;;;;;;8.50;3.10;;;36.60;46.50;;;;;;5011926;28;20080;-69
2022/08/07 12:24:38;;;;;;;6.28;3.17;;;36.70;46.10;;;;;;5011778;28;20033;-69
2022/08/07 12:27:09;;;;;;;7.10;3.10;;;36.80;45.10;;;;;;5033471;28;20033;-68
2022/08/07 12:29:39;;;;;;;10.63;3.15;;;36.80;45.30;;;;;;5053214;28;20033;-69
2022/08/07 12:32:19;;;;;;;6.40;3.10;;;36.80;44.60;;;;;;5053648;28;20037;-69
2022/08/07 12:34:47;;;;;;;6.82;2.85;;;36.70;44.70;;;;;;5053379;28;20021;-71
2022/08/07 12:37:16;;;;;;;5.22;2.92;;;36.80;44.00;;;;;;5046277;28;20026;-70
2022/08/07 12:39:46;;;;;;;4.72;2.40;;;36.80;44.00;;;;;;5047000;28;20033;-70
2022/08/07 12:42:14;;;;;;;6.28;2.65;;;36.80;43.90;;;;;;5053433;28;20037;-75
2022/08/07 12:44:44;;;;;;;7.22;2.85;;;36.80;43.20;;;;;;5052961;28;20051;-70
2022/08/07 12:47:45;;;;;;;7.82;2.97;;;36.80;43.10;;;;;;5053243;28;20070;-69
2022/08/07 12:50:26;;;;;;;6.32;2.90;;;36.70;43.50;;;;;;5047169;28;20112;-74
2022/08/07 12:53:20;;;;;;;7.30;2.67;;;36.80;42.60;;;;;;5035421;28;20072;-73
2022/08/07 12:55:54;;;;;;;9.43;2.88;;;36.90;42.90;;;;;;5023587;28;20041;-71
2022/08/07 12:58:21;;;;;;;5.63;2.90;;;36.80;42.40;;;;;;5031819;28;20099;-76
2022/08/07 13:01:13;;;;;;;6.47;2.80;;;36.90;41.90;;;;;;5031846;28;20052;-75
2022/08/07 13:04:32;;;;;;;5.90;3.10;;;36.90;41.70;;;;;;5022918;28;20052;-70
2022/08/07 13:07:25;;;;;;;8.52;2.85;;;37.00;41.90;;;;;;5011066;28;20030;-75
2022/08/07 13:10:11;;;;;;;5.25;2.50;;;37.00;41.30;;;;;;5012250;28;20049;-71
2022/08/07 13:13:06;;;;;;;4.95;2.60;;;37.00;41.50;;;;;;5033438;28;20080;-72
2022/08/07 13:15:56;;;;;;;5.57;2.90;;;37.00;41.40;;;;;;5033006;28;20039;-77
2022/08/07 13:18:59;;;;;;;6.55;2.58;;;36.90;41.30;;;;;;5033382;28;20104;-73
2022/08/07 13:21:33;;;;;;;5.37;2.83;;;36.90;41.40;;;;;;5033032;28;20455;-70
2022/08/07 13:24:07;;;;;;;7.90;2.80;;;36.90;42.00;;;;;;5032919;28;20264;-73